Time;durP1;ratioP1;P1;durP2;ratioP2;P2;SDS_P1;SDS_P2;PMS_P1;PMS_P2;Temp;Humidity;BMP_temperature;BMP_pressure;BME280_temperature;BME280_humidity;BME280_pressure;Samples;Min_cycle;Max_cycle;Signal;HPM_P1;HPM_P2
2024/03/14 00:00:21;;;;;;;;;;;;;;;;;;5081419;28;19908;-61
2024/03/14 00:02:46;;;;;;;;;;;;;;;;;;5086911;28;19912;-60
2024/03/14 00:05:11;;;;;;;;;;;;;;;;;;5084406;28;20292;-60
2024/03/14 00:07:36;;;;;;;;;;;;;;;;;;5086273;28;20082;-61
2024/03/14 00:10:01;;;;;;;;;;;;;;;;;;5084578;28;19912;-61
2024/03/14 00:12:26;;;;;;;;;;;;;;;;;;5089397;28;19917;-60
2024/03/14 00:14:51;;;;;;;;;;;;;;;;;;5081410;28;20003;-60
2024/03/14 00:17:20;;;;;;;;;;;;;;;;;;5089036;28;20301;-63
2024/03/14 00:19:45;;;;;;;;;;;;;;;;;;5089058;28;20029;-60
2024/03/14 00:22:10;;;;;;;;;;;;;;;;;;5089074;28;19908;-60
2024/03/14 00:24:37;;;;;;;;;;;;;;;;;;5089289;28;19923;-60
2024/03/14 00:27:03;;;;;;;;;;;;;;;;;;5091235;28;19973;-60
2024/03/14 00:29:30;;;;;;;;;;;;;;;;;;5085539;28;20349;-61
2024/03/14 00:31:55;;;;;;;;;;;;;;;;;;5084013;28;19912;-60
2024/03/14 00:34:21;;;;;;;;;;;;;;;;;;5089643;28;19912;-60
2024/03/14 00:36:46;;;;;;;;;;;;;;;;;;5088081;28;20002;-59
2024/03/14 00:39:11;;;;;;;;;;;;;;;;;;5085707;28;19955;-60
2024/03/14 00:41:36;;;;;;;;;;;;;;;;;;5087534;28;20300;-60
2024/03/14 00:44:03;;;;;;;;;;;;;;;;;;5086286;28;19916;-59
2024/03/14 00:46:29;;;;;;;;;;;;;;;;;;5086598;28;20402;-58
2024/03/14 00:48:55;;;;;;;;;;;;;;;;;;5085511;28;19947;-59
2024/03/14 00:51:20;;;;;;;;;;;;;;;;;;5086878;28;19955;-59
2024/03/14 00:53:45;;;;;;;;;;;;;;;;;;5087702;28;19931;-59
2024/03/14 00:56:13;;;;;;;;;;;;;;;;;;5085762;28;19956;-59
2024/03/14 00:58:40;;;;;;;;;;;;;;;;;;5081830;28;20000;-59
2024/03/14 01:01:05;;;;;;;;;;;;;;;;;;5084638;28;19912;-59
2024/03/14 01:03:33;;;;;;;;;;;;;;;;;;5086120;28;19917;-60
2024/03/14 01:05:58;;;;;;;;;;;;;;;;;;5089404;28;19957;-72
2024/03/14 01:08:23;;;;;;;;;;;;;;;;;;5082417;28;19912;-72
2024/03/14 01:10:48;;;;;;;;;;;;;;;;;;5091640;28;19985;-72
2024/03/14 01:13:13;;;;;;;;;;;;;;;;;;5083410;28;19912;-73
2024/03/14 01:15:39;;;;;;;;;;;;;;;;;;5083357;28;19916;-70
2024/03/14 01:18:05;;;;;;;;;;;;;;;;;;5087880;28;19935;-72
2024/03/14 01:20:31;;;;;;;;;;;;;;;;;;5080824;28;19912;-72
2024/03/14 01:22:56;;;;;;;;;;;;;;;;;;5087308;28;20584;-72
2024/03/14 01:25:21;;;;;;;;;;;;;;;;;;5087958;28;19912;-71
2024/03/14 01:27:46;;;;;;;;;;;;;;;;;;5087308;28;19920;-71
2024/03/14 01:30:12;;;;;;;;;;;;;;;;;;5082118;28;19935;-72
2024/03/14 01:32:37;;;;;;;;;;;;;;;;;;5088033;28;19997;-68
2024/03/14 01:35:05;;;;;;;;;;;;;;;;;;5084789;28;19959;-73
2024/03/14 01:37:30;;;;;;;;;;;;;;;;;;5084036;28;20678;-70
2024/03/14 01:39:55;;;;;;;;;;;;;;;;;;5085838;28;20437;-73
2024/03/14 01:42:21;;;;;;;;;;;;;;;;;;5086045;28;19932;-70
2024/03/14 01:44:46;;;;;;;;;;;;;;;;;;5079456;28;19920;-72
2024/03/14 01:47:11;;;;;;;;;;;;;;;;;;5088443;28;19914;-72
2024/03/14 01:49:36;;;;;;;;;;;;;;;;;;5082767;28;20397;-71
2024/03/14 01:52:01;;;;;;;;;;;;;;;;;;5080698;28;20308;-73
2024/03/14 01:54:26;;;;;;;;;;;;;;;;;;5086685;28;20355;-72
2024/03/14 01:56:57;;;;;;;;;;;;;;;;;;5089368;28;19977;-72
2024/03/14 01:59:23;;;;;;;;;;;;;;;;;;5076634;28;19995;-73
2024/03/14 02:01:49;;;;;;;;;;;;;;;;;;5080484;28;20010;-73
2024/03/14 02:04:14;;;;;;;;;;;;;;;;;;5087507;28;19944;-72
2024/03/14 02:06:39;;;;;;;;;;;;;;;;;;5081628;28;19962;-72
2024/03/14 02:09:04;;;;;;;;;;;;;;;;;;5087526;28;19923;-72
2024/03/14 02:11:29;;;;;;;;;;;;;;;;;;5086121;28;19954;-73
2024/03/14 02:13:56;;;;;;;;;;;;;;;;;;5085723;28;19930;-70
2024/03/14 02:16:22;;;;;;;;;;;;;;;;;;5100529;28;20349;-73
2024/03/14 02:18:47;;;;;;;;;;;;;;;;;;5097872;28;19942;-73
2024/03/14 02:21:12;;;;;;;;;;;;;;;;;;5095761;28;20406;-71
2024/03/14 02:23:37;;;;;;;;;;;;;;;;;;5096189;28;19920;-72
2024/03/14 02:26:02;;;;;;;;;;;;;;;;;;5099083;28;19911;-72
2024/03/14 02:28:29;;;;;;;;;;;;;;;;;;5094580;28;19962;-72
2024/03/14 02:30:54;;;;;;;;;;;;;;;;;;5096289;28;20358;-73
2024/03/14 02:33:19;;;;;;;;;;;;;;;;;;5094305;28;19912;-73
2024/03/14 02:35:44;;;;;;;;;;;;;;;;;;5100059;28;20432;-72
2024/03/14 02:38:10;;;;;;;;;;;;;;;;;;5095910;28;19912;-72
2024/03/14 02:40:35;;;;;;;;;;;;;;;;;;5096310;28;20014;-71
2024/03/14 02:43:00;;;;;;;;;;;;;;;;;;5097942;28;19970;-72
2024/03/14 02:45:25;;;;;;;;;;;;;;;;;;5096353;28;19923;-73
2024/03/14 02:47:50;;;;;;;;;;;;;;;;;;5094667;28;19918;-73
2024/03/14 02:50:15;;;;;;;;;;;;;;;;;;5095575;28;19999;-71
2024/03/14 02:52:40;;;;;;;;;;;;;;;;;;5084730;28;19962;-73
2024/03/14 02:55:08;;;;;;;;;;;;;;;;;;5086972;28;19965;-73
2024/03/14 02:57:34;;;;;;;;;;;;;;;;;;5080789;28;19912;-72
2024/03/14 02:59:59;;;;;;;;;;;;;;;;;;5080433;28;20295;-71
2024/03/14 03:02:25;;;;;;;;;;;;;;;;;;5086749;28;20280;-73
2024/03/14 03:04:50;;;;;;;;;;;;;;;;;;5085763;28;19916;-72
2024/03/14 03:07:18;;;;;;;;;;;;;;;;;;5085456;28;19916;-72
2024/03/14 03:09:43;;;;;;;;;;;;;;;;;;5079753;28;19913;-71
2024/03/14 03:12:08;;;;;;;;;;;;;;;;;;5085055;28;20007;-72
2024/03/14 03:14:35;;;;;;;;;;;;;;;;;;5087558;28;19919;-73
2024/03/14 03:17:00;;;;;;;;;;;;;;;;;;5080513;28;19916;-72
2024/03/14 03:19:25;;;;;;;;;;;;;;;;;;5083121;28;19943;-72
2024/03/14 03:21:50;;;;;;;;;;;;;;;;;;5082037;28;19913;-72
2024/03/14 03:24:15;;;;;;;;;;;;;;;;;;5088665;28;19916;-74
2024/03/14 03:26:41;;;;;;;;;;;;;;;;;;5082960;28;19912;-73
2024/03/14 03:29:06;;;;;;;;;;;;;;;;;;5083458;28;20424;-72
2024/03/14 03:31:32;;;;;;;;;;;;;;;;;;5084980;28;19912;-73
2024/03/14 03:33:57;;;;;;;;;;;;;;;;;;5082498;28;19924;-66
2024/03/14 03:36:22;;;;;;;;;;;;;;;;;;5085807;28;20277;-72
2024/03/14 03:38:47;;;;;;;;;;;;;;;;;;5073739;28;20356;-72
2024/03/14 03:41:12;;;;;;;;;;;;;;;;;;5089236;28;19973;-73
2024/03/14 03:43:38;;;;;;;;;;;;;;;;;;5083785;28;19920;-71
2024/03/14 03:46:06;;;;;;;;;;;;;;;;;;5088136;28;19916;-73
2024/03/14 03:48:31;;;;;;;;;;;;;;;;;;5081776;28;19927;-71
2024/03/14 03:50:57;;;;;;;;;;;;;;;;;;5088174;28;19920;-74
2024/03/14 03:53:22;;;;;;;;;;;;;;;;;;5091057;28;19947;-73
2024/03/14 03:55:49;;;;;;;;;;;;;;;;;;5085934;28;19923;-70
2024/03/14 03:58:14;;;;;;;;;;;;;;;;;;5091519;28;19926;-73
2024/03/14 04:00:43;;;;;;;;;;;;;;;;;;5086285;28;19912;-72
2024/03/14 04:03:11;;;;;;;;;;;;;;;;;;5090942;28;19912;-74
2024/03/14 04:05:36;;;;;;;;;;;;;;;;;;5092477;28;19916;-71
2024/03/14 04:08:01;;;;;;;;;;;;;;;;;;5084264;28;19926;-73
2024/03/14 04:10:27;;;;;;;;;;;;;;;;;;5090609;28;19923;-73
2024/03/14 04:12:53;;;;;;;;;;;;;;;;;;5088177;28;19912;-71
2024/03/14 04:15:19;;;;;;;;;;;;;;;;;;5087768;28;19916;-74
2024/03/14 04:17:44;;;;;;;;;;;;;;;;;;5087986;28;19916;-72
2024/03/14 04:20:13;;;;;;;;;;;;;;;;;;5087004;28;19919;-72
2024/03/14 04:22:40;;;;;;;;;;;;;;;;;;5083946;28;19916;-73
2024/03/14 04:25:05;;;;;;;;;;;;;;;;;;5075732;28;19916;-73
2024/03/14 04:27:30;;;;;;;;;;;;;;;;;;5077934;28;19912;-73
2024/03/14 04:29:55;;;;;;;;;;;;;;;;;;5084521;28;20007;-71
2024/03/14 04:32:21;;;;;;;;;;;;;;;;;;5080642;28;19912;-72
2024/03/14 04:34:46;;;;;;;;;;;;;;;;;;5086126;28;19924;-71
2024/03/14 04:37:12;;;;;;;;;;;;;;;;;;5076789;28;19919;-60
2024/03/14 04:39:38;;;;;;;;;;;;;;;;;;5073631;28;19920;-60
2024/03/14 04:42:05;;;;;;;;;;;;;;;;;;5067500;28;19935;-60
2024/03/14 04:44:33;;;;;;;;;;;;;;;;;;5078780;28;20002;-60
2024/03/14 04:46:58;;;;;;;;;;;;;;;;;;5080633;28;19963;-61
2024/03/14 04:49:23;;;;;;;;;;;;;;;;;;5072827;28;19993;-60
2024/03/14 04:51:49;;;;;;;;;;;;;;;;;;5075404;28;19912;-60
2024/03/14 04:54:16;;;;;;;;;;;;;;;;;;5078035;28;19948;-60
2024/03/14 04:56:42;;;;;;;;;;;;;;;;;;5081797;28;20010;-59
2024/03/14 04:59:12;;;;;;;;;;;;;;;;;;5074494;28;20008;-60
2024/03/14 05:01:38;;;;;;;;;;;;;;;;;;5077704;28;20379;-59
2024/03/14 05:04:06;;;;;;;;;;;;;;;;;;5085203;28;19912;-59
2024/03/14 05:06:32;;;;;;;;;;;;;;;;;;5093338;28;19912;-60
2024/03/14 05:08:58;;;;;;;;;;;;;;;;;;5081830;28;20364;-60
2024/03/14 05:11:23;;;;;;;;;;;;;;;;;;5073856;28;19920;-61
2024/03/14 05:13:56;;;;;;;;;;;;;;;;;;5077347;28;19919;-59
2024/03/14 05:16:22;;;;;;;;;;;;;;;;;;5082616;28;19915;-60
2024/03/14 05:18:47;;;;;;;;;;;;;;;;;;5076403;28;19921;-60
2024/03/14 05:21:12;;;;;;;;;;;;;;;;;;5079618;28;19999;-60
2024/03/14 05:23:37;;;;;;;;;;;;;;;;;;5083486;28;19921;-60
2024/03/14 05:26:02;;;;;;;;;;;;;;;;;;5079473;28;19912;-60
2024/03/14 05:28:28;;;;;;;;;;;;;;;;;;5082883;28;19938;-60
2024/03/14 05:30:53;;;;;;;;;;;;;;;;;;5075143;28;20439;-60
2024/03/14 05:33:18;;;;;;;;;;;;;;;;;;5082970;28;20399;-60
2024/03/14 05:35:44;;;;;;;;;;;;;;;;;;5083892;28;20362;-59
2024/03/14 05:38:09;;;;;;;;;;;;;;;;;;5078845;28;19912;-60
2024/03/14 05:40:34;;;;;;;;;;;;;;;;;;5072562;28;19916;-60
2024/03/14 05:42:59;;;;;;;;;;;;;;;;;;5078722;28;19916;-60
2024/03/14 05:45:25;;;;;;;;;;;;;;;;;;5076087;28;19921;-60
2024/03/14 05:47:51;;;;;;;;;;;;;;;;;;5073351;28;19919;-60
2024/03/14 05:50:16;;;;;;;;;;;;;;;;;;5078183;28;20053;-60
2024/03/14 05:52:41;;;;;;;;;;;;;;;;;;5081471;28;19919;-61
2024/03/14 05:55:08;;;;;;;;;;;;;;;;;;5079499;28;19924;-62
2024/03/14 05:57:36;;;;;;;;;;;;;;;;;;5082189;28;19916;-60
2024/03/14 06:00:03;;;;;;;;;;;;;;;;;;5073516;28;20561;-59
2024/03/14 06:02:28;;;;;;;;;;;;;;;;;;5080759;28;20034;-62
2024/03/14 06:04:53;;;;;;;;;;;;;;;;;;5081569;28;20383;-60
2024/03/14 06:07:18;;;;;;;;;;;;;;;;;;5076814;28;19912;-60
2024/03/14 06:09:43;;;;;;;;;;;;;;;;;;5087438;28;20262;-59
2024/03/14 06:12:09;;;;;;;;;;;;;;;;;;5076293;28;19939;-59
2024/03/14 06:14:34;;;;;;;;;;;;;;;;;;5080095;28;19911;-60
2024/03/14 06:16:59;;;;;;;;;;;;;;;;;;5075614;28;20293;-59
2024/03/14 06:19:24;;;;;;;;;;;;;;;;;;5071539;28;19935;-59
2024/03/14 06:21:50;;;;;;;;;;;;;;;;;;5072217;28;19922;-61
2024/03/14 06:24:16;;;;;;;;;;;;;;;;;;5085478;28;19916;-59
2024/03/14 06:26:41;;;;;;;;;;;;;;;;;;5088822;28;19912;-60
2024/03/14 06:29:07;;;;;;;;;;;;;;;;;;5081438;28;19912;-61
2024/03/14 06:31:32;;;;;;;;;;;;;;;;;;5080879;28;19956;-59
2024/03/14 06:33:57;;;;;;;;;;;;;;;;;;5082951;28;19921;-62
2024/03/14 06:36:23;;;;;;;;;;;;;;;;;;5083774;28;19920;-60
2024/03/14 06:38:49;;;;;;;;;;;;;;;;;;5084921;28;19916;-61
2024/03/14 06:41:15;;;;;;;;;;;;;;;;;;5074314;28;20397;-59
2024/03/14 06:43:42;;;;;;;;;;;;;;;;;;5049148;28;20328;-59
2024/03/14 06:46:07;;;;;;;;;;;;;;;;;;5056167;28;19950;-59
2024/03/14 06:48:33;;;;;;;;;;;;;;;;;;5059736;28;19924;-59
2024/03/14 06:50:58;;;;;;;;;;;;;;;;;;5054101;28;19979;-60
2024/03/14 06:53:23;;;;;;;;;;;;;;;;;;5054005;28;19917;-59
2024/03/14 06:55:49;;;;;;;;;;;;;;;;;;5054021;28;19917;-70
2024/03/14 06:58:16;;;;;;;;;;;;;;;;;;5054105;28;19999;-70
2024/03/14 07:00:42;;;;;;;;;;;;;;;;;;5057347;28;19923;-70
2024/03/14 07:03:07;;;;;;;;;;;;;;;;;;5056235;28;19916;-69
2024/03/14 07:05:32;;;;;;;;;;;;;;;;;;5065615;28;19913;-71
2024/03/14 07:07:58;;;;;;;;;;;;;;;;;;5063545;28;19917;-70
2024/03/14 07:10:24;;;;;;;;;;;;;;;;;;5056727;28;20403;-70
2024/03/14 07:12:49;;;;;;;;;;;;;;;;;;5055766;28;20081;-72
2024/03/14 07:15:14;;;;;;;;;;;;;;;;;;5051839;28;19916;-71
2024/03/14 07:17:40;;;;;;;;;;;;;;;;;;5058098;28;19923;-71
2024/03/14 07:20:09;;;;;;;;;;;;;;;;;;5063042;28;19916;-72
2024/03/14 07:22:34;;;;;;;;;;;;;;;;;;5059582;28;20011;-72
2024/03/14 07:24:59;;;;;;;;;;;;;;;;;;5053544;28;20016;-70
2024/03/14 07:27:24;;;;;;;;;;;;;;;;;;5050743;28;19912;-70
2024/03/14 07:29:49;;;;;;;;;;;;;;;;;;5050902;28;19939;-70
2024/03/14 07:32:15;;;;;;;;;;;;;;;;;;5055371;28;19917;-69
2024/03/14 07:34:40;;;;;;;;;;;;;;;;;;5053049;28;19917;-71
2024/03/14 07:37:05;;;;;;;;;;;;;;;;;;5060209;28;19944;-71
2024/03/14 07:39:34;;;;;;;;;;;;;;;;;;5054371;28;19913;-71
2024/03/14 07:41:59;;;;;;;;;;;;;;;;;;5065070;28;19932;-71
2024/03/14 07:44:26;;;;;;;;;;;;;;;;;;5080772;28;19913;-69
2024/03/14 07:46:51;;;;;;;;;;;;;;;;;;5071371;28;19912;-69
2024/03/14 07:49:17;;;;;;;;;;;;;;;;;;5085615;28;19974;-68
2024/03/14 07:51:42;;;;;;;;;;;;;;;;;;5070999;28;19937;-67
2024/03/14 07:54:11;;;;;;;;;;;;;;;;;;5080707;28;19924;-68
2024/03/14 07:56:36;;;;;;;;;;;;;;;;;;5072317;28;19955;-65
2024/03/14 07:59:01;;;;;;;;;;;;;;;;;;5070899;28;19952;-66
2024/03/14 08:01:28;;;;;;;;;;;;;;;;;;5075538;28;19935;-65
2024/03/14 08:03:53;;;;;;;;;;;;;;;;;;5076278;28;19912;-68
2024/03/14 08:06:18;;;;;;;;;;;;;;;;;;5084812;28;19935;-59
2024/03/14 08:08:43;;;;;;;;;;;;;;;;;;5077783;28;20318;-60
2024/03/14 08:11:12;;;;;;;;;;;;;;;;;;5074005;28;19916;-60
2024/03/14 08:13:37;;;;;;;;;;;;;;;;;;5078918;28;19927;-60
2024/03/14 08:16:14;;;;;;;;;;;;;;;;;;5082542;28;19916;-59
2024/03/14 08:18:39;;;;;;;;;;;;;;;;;;5072808;28;19912;-59
2024/03/14 08:21:06;;;;;;;;;;;;;;;;;;5082300;28;20424;-59
2024/03/14 08:23:32;;;;;;;;;;;;;;;;;;5093017;28;19912;-59
2024/03/14 08:25:57;;;;;;;;;;;;;;;;;;5076463;28;19920;-61
2024/03/14 08:28:22;;;;;;;;;;;;;;;;;;5083867;28;19912;-59
2024/03/14 08:30:48;;;;;;;;;;;;;;;;;;5073393;28;19919;-60
2024/03/14 08:33:13;;;;;;;;;;;;;;;;;;5071948;28;19928;-59
2024/03/14 08:35:42;;;;;;;;;;;;;;;;;;5081358;28;19931;-59
2024/03/14 08:38:07;;;;;;;;;;;;;;;;;;5079779;28;19931;-61
2024/03/14 08:40:35;;;;;;;;;;;;;;;;;;5079674;28;19917;-59
2024/03/14 08:43:00;;;;;;;;;;;;;;;;;;5076087;28;19917;-61
2024/03/14 08:45:25;;;;;;;;;;;;;;;;;;5076918;28;19973;-59
2024/03/14 08:47:51;;;;;;;;;;;;;;;;;;5076983;28;19912;-59
2024/03/14 08:50:20;;;;;;;;;;;;;;;;;;5077407;28;19920;-59
2024/03/14 08:52:46;;;;;;;;;;;;;;;;;;5079400;28;20377;-60
2024/03/14 08:55:24;;;;;;;;;;;;;;;;;;5078463;28;19923;-59
2024/03/14 08:57:49;;;;;;;;;;;;;;;;;;5082537;28;20340;-61
2024/03/14 09:00:17;;;;;;;;;;;;;;;;;;5074140;28;20405;-59
2024/03/14 09:02:43;;;;;;;;;;;;;;;;;;5073659;28;20441;-60
2024/03/14 09:05:11;;;;;;;;;;;;;;;;;;5074271;28;20007;-59
2024/03/14 09:07:39;;;;;;;;;;;;;;;;;;5084291;28;19920;-61
2024/03/14 09:10:15;;;;;;;;;;;;;;;;;;5073504;28;19912;-59
2024/03/14 09:12:41;;;;;;;;;;;;;;;;;;5082813;28;19913;-60
2024/03/14 09:15:09;;;;;;;;;;;;;;;;;;5074823;28;19931;-62
2024/03/14 09:17:34;;;;;;;;;;;;;;;;;;5078261;28;20010;-67
2024/03/14 09:19:59;;;;;;;;;;;;;;;;;;5079263;28;20015;-69
2024/03/14 09:22:25;;;;;;;;;;;;;;;;;;5080169;28;19923;-70
2024/03/14 09:24:50;;;;;;;;;;;;;;;;;;5076428;28;19912;-70
2024/03/14 09:27:15;;;;;;;;;;;;;;;;;;5075807;28;19999;-69
2024/03/14 09:29:40;;;;;;;;;;;;;;;;;;5080166;28;19912;-71
2024/03/14 09:32:06;;;;;;;;;;;;;;;;;;5086128;28;19959;-69
2024/03/14 09:34:32;;;;;;;;;;;;;;;;;;5078399;28;20500;-69
2024/03/14 09:36:57;;;;;;;;;;;;;;;;;;5079863;28;19962;-69
2024/03/14 09:39:22;;;;;;;;;;;;;;;;;;5078792;28;20364;-71
2024/03/14 09:41:47;;;;;;;;;;;;;;;;;;5080701;28;19933;-71
2024/03/14 09:44:12;;;;;;;;;;;;;;;;;;5075111;28;20385;-71
2024/03/14 09:46:37;;;;;;;;;;;;;;;;;;5077703;28;19917;-70
2024/03/14 09:49:03;;;;;;;;;;;;;;;;;;5076994;28;19924;-72
2024/03/14 09:51:28;;;;;;;;;;;;;;;;;;5077558;28;20300;-72
2024/03/14 09:53:57;;;;;;;;;;;;;;;;;;5080193;28;20215;-71
2024/03/14 09:56:22;;;;;;;;;;;;;;;;;;5086836;28;20254;-71
2024/03/14 09:58:47;;;;;;;;;;;;;;;;;;5077210;28;19912;-72
2024/03/14 10:01:12;;;;;;;;;;;;;;;;;;5080263;28;19963;-70
2024/03/14 10:03:38;;;;;;;;;;;;;;;;;;5076285;28;19924;-71
2024/03/14 10:06:15;;;;;;;;;;;;;;;;;;5075242;28;19919;-72
2024/03/14 10:08:40;;;;;;;;;;;;;;;;;;5072168;28;19916;-71
2024/03/14 10:11:05;;;;;;;;;;;;;;;;;;5077559;28;19956;-71
2024/03/14 10:13:30;;;;;;;;;;;;;;;;;;5074868;28;19919;-72
2024/03/14 10:15:55;;;;;;;;;;;;;;;;;;5075826;28;19951;-71
2024/03/14 10:18:22;;;;;;;;;;;;;;;;;;5085332;28;19934;-70
2024/03/14 10:20:47;;;;;;;;;;;;;;;;;;5086961;28;19919;-71
2024/03/14 10:23:15;;;;;;;;;;;;;;;;;;5081508;28;19920;-71
2024/03/14 10:25:40;;;;;;;;;;;;;;;;;;5077619;28;19912;-71
2024/03/14 10:28:05;;;;;;;;;;;;;;;;;;5083081;28;20002;-73
2024/03/14 10:30:32;;;;;;;;;;;;;;;;;;5077017;28;19912;-69
2024/03/14 10:32:57;;;;;;;;;;;;;;;;;;5078014;28;19935;-70
2024/03/14 10:35:23;;;;;;;;;;;;;;;;;;5073216;28;20003;-72
2024/03/14 10:37:48;;;;;;;;;;;;;;;;;;5075782;28;20269;-72
2024/03/14 10:40:13;;;;;;;;;;;;;;;;;;5073456;28;19920;-71
2024/03/14 10:42:38;;;;;;;;;;;;;;;;;;5071617;28;19931;-71
2024/03/14 10:45:05;;;;;;;;;;;;;;;;;;5071737;28;19917;-72
2024/03/14 10:47:32;;;;;;;;;;;;;;;;;;5076588;28;19912;-71
2024/03/14 10:49:58;;;;;;;;;;;;;;;;;;5072243;28;20373;-71
2024/03/14 10:52:23;;;;;;;;;;;;;;;;;;5085611;28;19919;-72
2024/03/14 10:54:48;;;;;;;;;;;;;;;;;;5074024;28;19913;-72
2024/03/14 10:57:13;;;;;;;;;;;;;;;;;;5075040;28;19916;-72
2024/03/14 10:59:38;;;;;;;;;;;;;;;;;;5081340;28;19916;-72
2024/03/14 11:02:03;;;;;;;;;;;;;;;;;;5077345;28;19955;-70
2024/03/14 11:04:29;;;;;;;;;;;;;;;;;;5077579;28;19974;-72
2024/03/14 11:06:54;;;;;;;;;;;;;;;;;;5070194;28;19913;-71
2024/03/14 11:09:20;;;;;;;;;;;;;;;;;;5078533;28;19944;-71
2024/03/14 11:11:45;;;;;;;;;;;;;;;;;;5076839;28;20360;-70
2024/03/14 11:14:11;;;;;;;;;;;;;;;;;;5072379;28;19931;-72
2024/03/14 11:16:36;;;;;;;;;;;;;;;;;;5079656;28;19958;-71
2024/03/14 11:19:03;;;;;;;;;;;;;;;;;;5070938;28;19912;-71
2024/03/14 11:21:33;;;;;;;;;;;;;;;;;;5082829;28;19959;-70
2024/03/14 11:23:59;;;;;;;;;;;;;;;;;;5074336;28;19920;-71
2024/03/14 11:26:24;;;;;;;;;;;;;;;;;;5083076;28;19916;-70
2024/03/14 11:28:53;;;;;;;;;;;;;;;;;;5073843;28;20280;-72
2024/03/14 11:31:18;;;;;;;;;;;;;;;;;;5080060;28;20007;-72
2024/03/14 11:33:45;;;;;;;;;;;;;;;;;;5070235;28;20003;-71
2024/03/14 11:36:10;;;;;;;;;;;;;;;;;;5072820;28;19916;-72
2024/03/14 11:38:35;;;;;;;;;;;;;;;;;;5081377;28;19916;-72
2024/03/14 11:41:03;;;;;;;;;;;;;;;;;;5075530;28;19941;-71
2024/03/14 11:43:28;;;;;;;;;;;;;;;;;;5073622;28;20472;-71
2024/03/14 11:45:53;;;;;;;;;;;;;;;;;;5075943;28;19920;-71
2024/03/14 11:48:19;;;;;;;;;;;;;;;;;;5073507;28;19912;-71
2024/03/14 11:50:44;;;;;;;;;;;;;;;;;;5073553;28;19912;-71
2024/03/14 11:53:09;;;;;;;;;;;;;;;;;;5074037;28;19916;-71
2024/03/14 11:55:34;;;;;;;;;;;;;;;;;;5077840;28;19916;-72
2024/03/14 11:57:59;;;;;;;;;;;;;;;;;;5075647;28;20440;-73
2024/03/14 12:00:30;;;;;;;;;;;;;;;;;;5076767;28;19955;-70
2024/03/14 12:02:55;;;;;;;;;;;;;;;;;;5080089;28;20369;-70
2024/03/14 12:05:25;;;;;;;;;;;;;;;;;;5072370;28;19912;-71
2024/03/14 12:07:51;;;;;;;;;;;;;;;;;;5074567;28;19940;-72
2024/03/14 12:10:16;;;;;;;;;;;;;;;;;;5074864;28;19916;-72
2024/03/14 12:12:41;;;;;;;;;;;;;;;;;;5085326;28;19965;-72
2024/03/14 12:15:06;;;;;;;;;;;;;;;;;;5077935;28;19913;-73
2024/03/14 12:17:31;;;;;;;;;;;;;;;;;;5087948;28;19912;-71
2024/03/14 12:19:56;;;;;;;;;;;;;;;;;;5085456;28;19956;-71
2024/03/14 12:22:22;;;;;;;;;;;;;;;;;;5080928;28;19912;-72
2024/03/14 12:24:47;;;;;;;;;;;;;;;;;;5080287;28;19915;-67
2024/03/14 12:27:12;;;;;;;;;;;;;;;;;;5078694;28;19912;-70
2024/03/14 12:29:37;;;;;;;;;;;;;;;;;;5086555;28;20273;-72
2024/03/14 12:32:03;;;;;;;;;;;;;;;;;;5074077;28;19913;-71
2024/03/14 12:34:28;;;;;;;;;;;;;;;;;;5083366;28;19958;-70
2024/03/14 12:36:53;;;;;;;;;;;;;;;;;;5085464;28;19916;-72
2024/03/14 12:39:18;;;;;;;;;;;;;;;;;;5076145;28;20006;-71
2024/03/14 12:41:44;;;;;;;;;;;;;;;;;;5082238;28;20375;-73
2024/03/14 12:44:09;;;;;;;;;;;;;;;;;;5082269;28;19912;-74
2024/03/14 12:46:35;;;;;;;;;;;;;;;;;;5078854;28;19917;-73
2024/03/14 12:49:03;;;;;;;;;;;;;;;;;;5054908;28;20372;-72
2024/03/14 12:51:28;;;;;;;;;;;;;;;;;;5076109;28;19947;-74
2024/03/14 12:53:57;;;;;;;;;;;;;;;;;;5080938;28;19986;-73
2024/03/14 12:56:22;;;;;;;;;;;;;;;;;;5076688;28;19924;-72
2024/03/14 12:58:47;;;;;;;;;;;;;;;;;;5073686;28;19920;-73
2024/03/14 13:01:12;;;;;;;;;;;;;;;;;;5074080;28;19923;-73
2024/03/14 13:03:37;;;;;;;;;;;;;;;;;;5073587;28;20007;-74
2024/03/14 13:06:03;;;;;;;;;;;;;;;;;;5085765;28;19958;-73
2024/03/14 13:08:29;;;;;;;;;;;;;;;;;;5080095;28;19913;-74
2024/03/14 13:10:55;;;;;;;;;;;;;;;;;;5080376;28;19912;-73
2024/03/14 13:13:21;;;;;;;;;;;;;;;;;;5078819;28;20383;-73
2024/03/14 13:15:46;;;;;;;;;;;;;;;;;;5085703;28;19924;-74
2024/03/14 13:18:12;;;;;;;;;;;;;;;;;;5088758;28;19919;-73
2024/03/14 13:20:38;;;;;;;;;;;;;;;;;;5077507;28;20387;-71
2024/03/14 13:23:03;;;;;;;;;;;;;;;;;;5078224;28;19920;-74
2024/03/14 13:25:28;;;;;;;;;;;;;;;;;;5078821;28;19931;-72
2024/03/14 13:27:54;;;;;;;;;;;;;;;;;;5081128;28;20328;-73
2024/03/14 13:30:19;;;;;;;;;;;;;;;;;;5078194;28;20003;-73
2024/03/14 13:32:45;;;;;;;;;;;;;;;;;;5084555;28;20476;-73
2024/03/14 13:35:13;;;;;;;;;;;;;;;;;;5077869;28;20273;-70
2024/03/14 13:37:38;;;;;;;;;;;;;;;;;;5077693;28;19959;-71
2024/03/14 13:40:11;;;;;;;;;;;;;;;;;;5077770;28;20001;-72
2024/03/14 13:42:36;;;;;;;;;;;;;;;;;;5075028;28;19932;-70
2024/03/14 13:45:01;;;;;;;;;;;;;;;;;;5083515;28;19915;-72
2024/03/14 13:47:26;;;;;;;;;;;;;;;;;;5077874;28;21170;-72
2024/03/14 13:49:51;;;;;;;;;;;;;;;;;;5072680;28;20052;-73
2024/03/14 13:52:18;;;;;;;;;;;;;;;;;;5074063;28;19920;-71
2024/03/14 13:54:45;;;;;;;;;;;;;;;;;;5076068;28;20276;-72
2024/03/14 13:57:11;;;;;;;;;;;;;;;;;;5077042;28;20003;-72
2024/03/14 13:59:37;;;;;;;;;;;;;;;;;;5076649;28;19913;-72
2024/03/14 14:02:02;;;;;;;;;;;;;;;;;;5084932;28;19923;-74
2024/03/14 14:04:30;;;;;;;;;;;;;;;;;;5077641;28;19927;-72
2024/03/14 14:06:57;;;;;;;;;;;;;;;;;;5080997;28;20004;-70
2024/03/14 14:09:24;;;;;;;;;;;;;;;;;;5085478;28;19923;-72
2024/03/14 14:11:49;;;;;;;;;;;;;;;;;;5076143;28;20029;-73
2024/03/14 14:14:16;;;;;;;;;;;;;;;;;;5087685;28;19942;-72
2024/03/14 14:16:42;;;;;;;;;;;;;;;;;;5076440;28;19969;-72
2024/03/14 14:19:08;;;;;;;;;;;;;;;;;;5076818;28;20383;-68
2024/03/14 14:21:35;;;;;;;;;;;;;;;;;;5073366;28;19920;-72
2024/03/14 14:24:00;;;;;;;;;;;;;;;;;;5086788;28;20483;-73
2024/03/14 14:26:25;;;;;;;;;;;;;;;;;;5079020;28;19913;-72
2024/03/14 14:28:50;;;;;;;;;;;;;;;;;;5083553;28;20416;-73
2024/03/14 14:31:15;;;;;;;;;;;;;;;;;;5073487;28;19916;-73
2024/03/14 14:33:41;;;;;;;;;;;;;;;;;;5070962;28;19916;-72
2024/03/14 14:36:06;;;;;;;;;;;;;;;;;;5082060;28;19928;-73
2024/03/14 14:38:31;;;;;;;;;;;;;;;;;;5077385;28;19912;-73
2024/03/14 14:40:56;;;;;;;;;;;;;;;;;;5075875;28;20343;-73
2024/03/14 14:43:21;;;;;;;;;;;;;;;;;;5073961;28;20019;-73
2024/03/14 14:45:46;;;;;;;;;;;;;;;;;;5078627;28;19935;-70
2024/03/14 14:48:11;;;;;;;;;;;;;;;;;;5076958;28;19923;-71
2024/03/14 14:50:39;;;;;;;;;;;;;;;;;;5074886;28;20053;-72
2024/03/14 14:53:06;;;;;;;;;;;;;;;;;;5072476;28;19927;-70
2024/03/14 14:55:31;;;;;;;;;;;;;;;;;;5073425;28;19924;-68
2024/03/14 14:57:57;;;;;;;;;;;;;;;;;;5077831;28;20622;-69
2024/03/14 15:00:25;;;;;;;;;;;;;;;;;;5079694;28;19913;-70
2024/03/14 15:02:50;;;;;;;;;;;;;;;;;;5069594;28;20057;-69
2024/03/14 15:05:15;;;;;;;;;;;;;;;;;;5074935;28;20431;-70
2024/03/14 15:07:41;;;;;;;;;;;;;;;;;;5073915;28;19980;-68
2024/03/14 15:10:10;;;;;;;;;;;;;;;;;;5070576;28;20356;-68
2024/03/14 15:12:35;;;;;;;;;;;;;;;;;;5072906;28;20385;-69
2024/03/14 15:15:00;;;;;;;;;;;;;;;;;;5069850;28;19949;-69
2024/03/14 15:17:26;;;;;;;;;;;;;;;;;;5081828;28;19913;-61
2024/03/14 15:19:53;;;;;;;;;;;;;;;;;;5072694;28;20441;-61
2024/03/14 15:22:18;;;;;;;;;;;;;;;;;;5078849;28;20421;-61
2024/03/14 15:24:44;;;;;;;;;;;;;;;;;;5077522;28;19912;-60
2024/03/14 15:27:09;;;;;;;;;;;;;;;;;;5073605;28;19912;-60
2024/03/14 15:29:35;;;;;;;;;;;;;;;;;;5077579;28;19912;-60
2024/03/14 15:32:04;;;;;;;;;;;;;;;;;;5075929;28;19947;-61
2024/03/14 15:34:29;;;;;;;;;;;;;;;;;;5081174;28;19912;-63
2024/03/14 15:36:54;;;;;;;;;;;;;;;;;;5073957;28;19942;-60
2024/03/14 15:39:19;;;;;;;;;;;;;;;;;;5077187;28;19912;-61
2024/03/14 15:41:44;;;;;;;;;;;;;;;;;;5071238;28;19928;-60
2024/03/14 15:44:09;;;;;;;;;;;;;;;;;;5071743;28;20037;-61
2024/03/14 15:46:34;;;;;;;;;;;;;;;;;;5079536;28;19916;-61
2024/03/14 15:49:03;;;;;;;;;;;;;;;;;;5076481;28;19912;-61
2024/03/14 15:51:28;;;;;;;;;;;;;;;;;;5076971;28;19962;-61
2024/03/14 15:53:53;;;;;;;;;;;;;;;;;;5076429;28;19916;-61
2024/03/14 15:56:18;;;;;;;;;;;;;;;;;;5081159;28;19919;-62
2024/03/14 15:58:44;;;;;;;;;;;;;;;;;;5072003;28;19955;-63
2024/03/14 16:01:09;;;;;;;;;;;;;;;;;;5074622;28;19916;-61
2024/03/14 16:03:34;;;;;;;;;;;;;;;;;;5071825;28;20357;-62
2024/03/14 16:06:03;;;;;;;;;;;;;;;;;;5075751;28;19955;-61
2024/03/14 16:08:29;;;;;;;;;;;;;;;;;;5075206;28;20365;-62
2024/03/14 16:10:55;;;;;;;;;;;;;;;;;;5081814;28;19919;-61
2024/03/14 16:13:21;;;;;;;;;;;;;;;;;;5072059;28;20330;-61
2024/03/14 16:15:46;;;;;;;;;;;;;;;;;;5071593;28;19920;-61
2024/03/14 16:18:11;;;;;;;;;;;;;;;;;;5082167;28;19911;-61
2024/03/14 16:20:39;;;;;;;;;;;;;;;;;;5072377;28;19997;-61
2024/03/14 16:23:04;;;;;;;;;;;;;;;;;;5071817;28;20034;-61
2024/03/14 16:25:34;;;;;;;;;;;;;;;;;;5075203;28;19995;-61
2024/03/14 16:27:59;;;;;;;;;;;;;;;;;;5085785;28;19919;-62
2024/03/14 16:30:25;;;;;;;;;;;;;;;;;;5085745;28;19916;-62
2024/03/14 16:32:50;;;;;;;;;;;;;;;;;;5072284;28;19920;-61
2024/03/14 16:35:33;;;;;;;;;;;;;;;;;;5071713;28;19920;-61